createdAt,value
2017-04-26T00:00:19.771Z,0
2017-04-26T00:01:20.531Z,0
2017-04-26T00:02:21.289Z,0
2017-04-26T00:03:22.304Z,0
2017-04-26T00:04:23.069Z,0
2017-04-26T00:05:23.832Z,0
2017-04-26T00:06:24.596Z,0
2017-04-26T00:07:25.360Z,0
2017-04-26T00:08:26.403Z,0
2017-04-26T00:09:27.137Z,0
2017-04-26T00:10:27.899Z,0
2017-04-26T00:11:28.657Z,0
2017-04-26T00:12:29.424Z,0
2017-04-26T00:13:30.432Z,0
2017-04-26T00:14:31.193Z,0
2017-04-26T00:15:31.956Z,0
2017-04-26T00:16:32.717Z,0
2017-04-26T00:17:33.481Z,0
2017-04-26T00:18:34.494Z,0
2017-04-26T00:19:35.260Z,0
2017-04-26T00:20:36.021Z,0
2017-04-26T00:21:36.785Z,0
2017-04-26T00:22:37.548Z,0
2017-04-26T00:23:38.558Z,0
2017-04-26T00:24:39.321Z,0
2017-04-26T00:25:40.082Z,0
2017-04-26T00:26:40.843Z,0
2017-04-26T00:27:41.604Z,0
2017-04-26T00:28:42.615Z,0
2017-04-26T00:29:43.374Z,0
2017-04-26T00:30:44.133Z,0
2017-04-26T00:31:44.899Z,0
2017-04-26T00:32:45.660Z,0
2017-04-26T00:33:46.669Z,0
2017-04-26T00:34:47.429Z,0
2017-04-26T00:35:48.199Z,0
2017-04-26T00:36:48.955Z,0
2017-04-26T00:37:49.717Z,0
2017-04-26T00:38:50.728Z,0
2017-04-26T00:39:51.489Z,0
2017-04-26T00:40:52.432Z,0
2017-04-26T00:41:53.198Z,0
2017-04-26T00:42:53.960Z,0
2017-04-26T00:43:54.974Z,0
2017-04-26T00:44:55.736Z,0
2017-04-26T00:45:56.495Z,0
2017-04-26T00:46:57.256Z,0
2017-04-26T00:47:58.019Z,0
2017-04-26T00:48:59.030Z,0
2017-04-26T00:49:59.793Z,0
2017-04-26T00:51:00.551Z,0
2017-04-26T00:52:01.643Z,0
2017-04-26T00:53:02.654Z,0
2017-04-26T00:54:03.416Z,0
2017-04-26T00:55:04.180Z,0
2017-04-26T00:56:05.128Z,0
2017-04-26T00:57:05.888Z,0
2017-04-26T00:58:06.902Z,0
2017-04-26T00:59:07.663Z,0
2017-04-26T01:00:08.426Z,0
2017-04-26T01:01:09.189Z,0
2017-04-26T01:02:09.949Z,0
2017-04-26T01:03:10.961Z,0
2017-04-26T01:04:11.724Z,0
2017-04-26T01:05:12.484Z,0
2017-04-26T01:06:13.245Z,0
2017-04-26T01:07:14.010Z,0
2017-04-26T01:08:15.022Z,0
2017-04-26T01:09:15.782Z,0
2017-04-26T01:10:16.542Z,0
2017-04-26T01:11:17.305Z,0
2017-04-26T01:12:18.067Z,0
2017-04-26T01:13:19.081Z,0
2017-04-26T01:14:19.846Z,0
2017-04-26T01:15:20.609Z,0
2017-04-26T01:16:21.368Z,0
2017-04-26T01:17:22.131Z,0
2017-04-26T01:18:23.141Z,0
2017-04-26T01:19:23.901Z,0
2017-04-26T01:20:24.665Z,0
2017-04-26T01:21:25.426Z,0
2017-04-26T01:22:26.188Z,0
2017-04-26T01:23:27.198Z,0
2017-04-26T01:24:27.960Z,0
2017-04-26T01:25:28.723Z,0
2017-04-26T01:26:29.669Z,0
2017-04-26T01:27:30.431Z,0
2017-04-26T01:28:31.443Z,0
2017-04-26T01:29:32.208Z,0
2017-04-26T01:30:32.970Z,0
2017-04-26T01:31:33.733Z,0
2017-04-26T01:32:34.495Z,0
2017-04-26T01:33:35.511Z,0
2017-04-26T01:34:36.269Z,0
2017-04-26T01:35:37.030Z,0
2017-04-26T01:36:37.792Z,0
2017-04-26T01:37:38.552Z,0
2017-04-26T01:38:39.566Z,0
2017-04-26T01:39:40.325Z,0
2017-04-26T01:40:41.090Z,0
2017-04-26T01:41:41.853Z,0
2017-04-26T01:42:42.616Z,0
2017-04-26T01:43:43.627Z,0
2017-04-26T01:44:44.392Z,0
2017-04-26T01:45:45.175Z,0
2017-04-26T01:46:45.916Z,0
2017-04-26T01:47:46.674Z,0
2017-04-26T01:48:47.684Z,0
2017-04-26T01:49:48.446Z,0
2017-04-26T01:50:49.210Z,0
2017-04-26T01:51:49.974Z,0
2017-04-26T01:52:50.736Z,0
2017-04-26T01:53:51.747Z,0
2017-04-26T01:54:52.506Z,0
2017-04-26T01:55:53.269Z,0
2017-04-26T01:56:54.031Z,0
2017-04-26T01:57:54.792Z,0
2017-04-26T01:58:55.805Z,0
2017-04-26T01:59:56.571Z,0
2017-04-26T02:00:57.335Z,0
2017-04-26T02:01:58.095Z,0
2017-04-26T02:02:58.859Z,0
2017-04-26T02:03:59.918Z,0
2017-04-26T02:05:00.681Z,0
2017-04-26T02:06:01.630Z,0
2017-04-26T02:07:02.391Z,0
2017-04-26T02:08:03.150Z,0
2017-04-26T02:09:04.160Z,0
2017-04-26T02:10:04.924Z,0
2017-04-26T02:11:05.688Z,0
2017-04-26T02:12:06.453Z,0
2017-04-26T02:13:07.216Z,0
2017-04-26T02:14:08.231Z,0
2017-04-26T02:15:08.993Z,0
2017-04-26T02:16:09.759Z,0
2017-04-26T02:17:10.520Z,0
2017-04-26T02:18:11.280Z,0
2017-04-26T02:19:12.294Z,0
2017-04-26T02:20:13.057Z,0
2017-04-26T02:21:13.816Z,0
2017-04-26T02:22:14.578Z,0
2017-04-26T02:23:15.335Z,0
2017-04-26T02:24:16.348Z,0
2017-04-26T02:25:17.109Z,0
2017-04-26T02:26:17.873Z,0
2017-04-26T02:27:18.636Z,0
2017-04-26T02:28:19.400Z,0
2017-04-26T02:29:20.599Z,0
2017-04-26T02:30:21.359Z,0
2017-04-26T02:31:22.120Z,0
2017-04-26T02:32:23.068Z,0
2017-04-26T02:33:23.829Z,0
2017-04-26T02:34:24.839Z,0
2017-04-26T02:35:25.599Z,0
2017-04-26T02:36:26.360Z,0
2017-04-26T02:37:27.125Z,0
2017-04-26T02:38:27.884Z,0
2017-04-26T02:39:28.944Z,0
2017-04-26T02:40:29.704Z,0
2017-04-26T02:41:30.467Z,0
2017-04-26T02:42:31.227Z,0
2017-04-26T02:43:31.991Z,0
2017-04-26T02:44:33.002Z,0
2017-04-26T02:45:33.767Z,0
2017-04-26T02:46:34.530Z,0
2017-04-26T02:47:35.292Z,0
2017-04-26T02:48:36.055Z,0
2017-04-26T02:49:37.125Z,0
2017-04-26T02:50:37.878Z,0
2017-04-26T02:51:38.640Z,0
2017-04-26T02:52:39.404Z,0
2017-04-26T02:53:40.167Z,0
2017-04-26T02:54:41.177Z,0
2017-04-26T02:55:41.937Z,0
2017-04-26T02:56:42.699Z,0
2017-04-26T02:57:43.464Z,0
2017-04-26T02:58:44.222Z,0
2017-04-26T02:59:45.235Z,0
2017-04-26T03:00:45.999Z,0
2017-04-26T03:01:46.759Z,0
2017-04-26T03:02:47.523Z,0
2017-04-26T03:03:48.289Z,0
2017-04-26T03:04:49.300Z,0
2017-04-26T03:05:50.060Z,0
2017-04-26T03:06:50.823Z,0
2017-04-26T03:07:51.580Z,0
2017-04-26T03:08:52.342Z,0
2017-04-26T03:09:53.357Z,0
2017-04-26T03:10:54.119Z,0
2017-04-26T03:11:54.878Z,0
2017-04-26T03:12:55.638Z,0
2017-04-26T03:13:56.585Z,0
2017-04-26T03:14:57.595Z,0
2017-04-26T03:15:58.356Z,0
2017-04-26T03:16:59.118Z,0
2017-04-26T03:17:59.883Z,0
2017-04-26T03:19:00.645Z,0
2017-04-26T03:20:01.659Z,0
2017-04-26T03:21:02.420Z,0
2017-04-26T03:22:03.183Z,0
2017-04-26T03:23:03.945Z,0
2017-04-26T03:24:04.705Z,0
2017-04-26T03:25:05.714Z,0
2017-04-26T03:26:06.479Z,0
2017-04-26T03:27:07.243Z,0
2017-04-26T03:28:08.010Z,0
2017-04-26T03:29:08.771Z,0
2017-04-26T03:30:09.782Z,0
2017-04-26T03:31:10.544Z,0
2017-04-26T03:32:11.307Z,0
2017-04-26T03:33:12.072Z,0
2017-04-26T03:34:12.834Z,0
2017-04-26T03:35:13.897Z,0
2017-04-26T03:36:14.658Z,0
2017-04-26T03:37:15.448Z,0
2017-04-26T03:38:16.184Z,4
2017-04-26T03:39:16.945Z,4
2017-04-26T03:40:18.006Z,0
2017-04-26T03:41:18.767Z,4
2017-04-26T03:42:19.529Z,4
2017-04-26T03:43:20.291Z,4
2017-04-26T03:44:21.056Z,4
2017-04-26T03:45:22.120Z,4
2017-04-26T03:46:22.877Z,8
2017-04-26T03:47:23.636Z,8
2017-04-26T03:48:24.397Z,8
2017-04-26T03:49:25.161Z,12
2017-04-26T03:50:26.175Z,16
2017-04-26T03:51:26.936Z,16
2017-04-26T03:52:27.696Z,16
2017-04-26T03:53:28.459Z,20
2017-04-26T03:54:29.221Z,24
2017-04-26T03:55:30.282Z,28
2017-04-26T03:56:31.048Z,32
2017-04-26T03:57:31.811Z,36
2017-04-26T03:58:32.576Z,44
2017-04-26T03:59:33.338Z,48
2017-04-26T04:00:34.353Z,52
2017-04-26T04:01:35.117Z,60
2017-04-26T04:02:35.880Z,64
2017-04-26T04:03:36.652Z,72
2017-04-26T04:04:37.411Z,84
2017-04-26T04:05:38.426Z,92
2017-04-26T04:06:39.193Z,96
2017-04-26T04:07:39.958Z,108
2017-04-26T04:08:40.723Z,120
2017-04-26T04:09:41.486Z,132
2017-04-26T04:10:42.549Z,140
2017-04-26T04:11:43.311Z,152
2017-04-26T04:12:44.075Z,164
2017-04-26T04:13:44.841Z,180
2017-04-26T04:14:45.603Z,196
2017-04-26T04:15:46.622Z,212
2017-04-26T04:16:47.390Z,232
2017-04-26T04:17:48.156Z,252
2017-04-26T04:18:48.923Z,268
2017-04-26T04:19:49.687Z,288
2017-04-26T04:20:50.704Z,304
2017-04-26T04:21:51.471Z,324
2017-04-26T04:22:52.238Z,348
2017-04-26T04:23:53.004Z,368
2017-04-26T04:24:53.768Z,396
2017-04-26T04:25:54.786Z,420
2017-04-26T04:26:55.550Z,444
2017-04-26T04:27:56.316Z,472
2017-04-26T04:28:57.081Z,496
2017-04-26T04:29:57.847Z,524
2017-04-26T04:30:58.861Z,552
2017-04-26T04:31:59.627Z,596
2017-04-26T04:33:00.404Z,624
2017-04-26T04:34:01.167Z,640
2017-04-26T04:35:01.934Z,664
2017-04-26T04:36:02.948Z,692
2017-04-26T04:37:03.715Z,712
2017-04-26T04:38:04.484Z,732
2017-04-26T04:39:05.247Z,752
2017-04-26T04:40:06.010Z,776
2017-04-26T04:41:07.076Z,804
2017-04-26T04:42:07.840Z,836
2017-04-26T04:43:08.604Z,860
2017-04-26T04:44:09.370Z,884
2017-04-26T04:45:10.135Z,904
2017-04-26T04:46:11.153Z,940
2017-04-26T04:47:11.920Z,972
2017-04-26T04:48:12.688Z,1004
2017-04-26T04:49:13.455Z,1036
2017-04-26T04:50:14.220Z,1072
2017-04-26T04:51:15.236Z,1096
2017-04-26T04:52:16.003Z,1100
2017-04-26T04:53:16.769Z,1124
2017-04-26T04:54:17.538Z,1136
2017-04-26T04:55:18.305Z,1124
2017-04-26T04:56:19.325Z,1124
2017-04-26T04:57:20.090Z,1136
2017-04-26T04:58:20.858Z,1160
2017-04-26T04:59:21.625Z,1200
2017-04-26T05:00:22.392Z,1244
2017-04-26T05:01:23.411Z,1260
2017-04-26T05:02:24.177Z,1288
2017-04-26T05:03:24.942Z,1348
2017-04-26T05:04:25.711Z,1412
2017-04-26T05:05:26.477Z,1424
2017-04-26T05:06:27.496Z,1480
2017-04-26T05:07:28.262Z,1524
2017-04-26T05:08:29.029Z,1540
2017-04-26T05:09:29.797Z,1560
2017-04-26T05:10:30.563Z,1564
2017-04-26T05:11:31.583Z,1572
2017-04-26T05:12:32.349Z,1636
2017-04-26T05:13:33.119Z,1764
2017-04-26T05:14:33.884Z,1836
2017-04-26T05:15:34.652Z,1880
2017-04-26T05:16:35.669Z,1904
2017-04-26T05:17:36.436Z,1836
2017-04-26T05:18:37.203Z,1704
2017-04-26T05:19:37.974Z,1616
2017-04-26T05:20:38.738Z,1624
2017-04-26T05:21:39.755Z,1696
2017-04-26T05:22:40.524Z,1836
2017-04-26T05:23:41.291Z,1968
2017-04-26T05:24:42.062Z,2076
2017-04-26T05:25:42.829Z,2112
2017-04-26T05:26:43.849Z,2164
2017-04-26T05:27:44.617Z,2224
2017-04-26T05:28:45.385Z,2292
2017-04-26T05:29:46.156Z,2324
2017-04-26T05:30:46.924Z,2376
2017-04-26T05:31:47.941Z,2452
2017-04-26T05:32:48.711Z,2556
2017-04-26T05:33:49.478Z,2620
2017-04-26T05:34:50.245Z,2648
2017-04-26T05:35:51.016Z,2696
2017-04-26T05:36:52.031Z,2772
2017-04-26T05:37:52.796Z,2872
2017-04-26T05:38:53.567Z,2904
2017-04-26T05:39:54.336Z,2852
2017-04-26T05:40:55.105Z,2748
2017-04-26T05:41:56.122Z,2672
2017-04-26T05:42:56.892Z,2624
2017-04-26T05:43:57.846Z,2608
2017-04-26T05:44:58.614Z,2604
2017-04-26T05:45:59.386Z,2596
2017-04-26T05:47:00.408Z,2628
2017-04-26T05:48:01.174Z,2680
2017-04-26T05:49:01.947Z,2780
2017-04-26T05:50:02.715Z,2908
2017-04-26T05:51:03.488Z,2928
2017-04-26T05:52:04.557Z,3000
2017-04-26T05:53:05.326Z,3084
2017-04-26T05:54:06.094Z,3188
2017-04-26T05:55:06.864Z,3296
2017-04-26T05:56:07.637Z,3440
2017-04-26T05:57:08.661Z,3632
2017-04-26T05:58:09.433Z,3824
2017-04-26T05:59:10.204Z,3964
2017-04-26T06:00:10.977Z,4012
2017-04-26T06:01:11.778Z,3936
2017-04-26T06:02:12.825Z,3876
2017-04-26T06:03:13.574Z,3880
2017-04-26T06:04:14.346Z,3888
2017-04-26T06:05:15.109Z,3824
2017-04-26T06:06:15.881Z,3748
2017-04-26T06:07:16.899Z,3680
2017-04-26T06:08:17.856Z,3640
2017-04-26T06:09:18.627Z,3624
2017-04-26T06:10:19.396Z,3656
2017-04-26T06:11:20.166Z,3652
2017-04-26T06:12:21.186Z,3608
2017-04-26T06:13:21.958Z,3604
2017-04-26T06:14:22.729Z,3644
2017-04-26T06:15:23.500Z,3668
2017-04-26T06:16:24.268Z,3644
2017-04-26T06:17:25.288Z,3600
2017-04-26T06:18:26.057Z,3624
2017-04-26T06:19:26.828Z,3684
2017-04-26T06:20:27.597Z,3660
2017-04-26T06:21:28.370Z,3608
2017-04-26T06:22:29.391Z,3556
2017-04-26T06:23:30.164Z,3488
2017-04-26T06:24:30.934Z,3452
2017-04-26T06:25:31.705Z,3484
2017-04-26T06:26:32.479Z,3592
2017-04-26T06:27:33.500Z,3720
2017-04-26T06:28:34.271Z,3848
2017-04-26T06:29:35.041Z,3996
2017-04-26T06:30:35.816Z,4116
2017-04-26T06:31:36.588Z,4148
2017-04-26T06:32:37.612Z,4188
2017-04-26T06:33:38.383Z,4276
2017-04-26T06:34:39.153Z,4404
2017-04-26T06:35:39.925Z,4564
2017-04-26T06:36:40.696Z,4740
2017-04-26T06:37:41.718Z,4920
2017-04-26T06:38:42.491Z,5124
2017-04-26T06:39:43.263Z,5332
2017-04-26T06:40:44.034Z,5560
2017-04-26T06:41:44.809Z,5712
2017-04-26T06:42:45.829Z,5840
2017-04-26T06:43:46.605Z,5952
2017-04-26T06:44:47.379Z,5964
2017-04-26T06:45:48.150Z,5940
2017-04-26T06:46:48.924Z,5932
2017-04-26T06:47:49.947Z,5768
2017-04-26T06:48:50.717Z,5620
2017-04-26T06:49:51.492Z,5548
2017-04-26T06:50:52.270Z,5408
2017-04-26T06:51:53.035Z,5252
2017-04-26T06:52:54.059Z,5036
2017-04-26T06:53:54.830Z,4864
2017-04-26T06:54:55.602Z,4812
2017-04-26T06:55:56.377Z,4716
2017-04-26T06:56:57.150Z,4580
2017-04-26T06:57:58.175Z,4424
2017-04-26T06:58:58.946Z,4296
2017-04-26T06:59:59.717Z,4216
2017-04-26T07:01:00.489Z,4172
2017-04-26T07:02:01.259Z,4208
2017-04-26T07:03:02.285Z,4288
2017-04-26T07:04:03.053Z,4384
2017-04-26T07:05:03.827Z,4532
2017-04-26T07:06:04.600Z,4764
2017-04-26T07:07:05.373Z,5052
2017-04-26T07:08:06.393Z,5392
2017-04-26T07:09:07.163Z,5752
2017-04-26T07:10:07.936Z,6128
2017-04-26T07:11:08.709Z,6460
2017-04-26T07:12:09.480Z,6748
2017-04-26T07:13:10.505Z,6956
2017-04-26T07:14:11.280Z,7140
2017-04-26T07:15:12.056Z,7320
2017-04-26T07:16:12.827Z,7516
2017-04-26T07:17:13.603Z,7784
2017-04-26T07:18:14.627Z,8116
2017-04-26T07:19:15.402Z,8472
2017-04-26T07:20:16.174Z,8848
2017-04-26T07:21:16.949Z,9204
2017-04-26T07:22:17.723Z,9620
2017-04-26T07:23:18.745Z,9884
2017-04-26T07:24:19.519Z,9980
2017-04-26T07:25:20.293Z,10004
2017-04-26T07:26:21.067Z,10200
2017-04-26T07:27:21.842Z,13036
2017-04-26T07:28:22.867Z,11736
2017-04-26T07:29:23.644Z,9316
2017-04-26T07:30:24.416Z,9316
2017-04-26T07:31:25.192Z,9568
2017-04-26T07:32:25.967Z,9680
2017-04-26T07:33:26.991Z,9708
2017-04-26T07:34:27.767Z,9608
2017-04-26T07:35:28.542Z,9824
2017-04-26T07:36:29.320Z,10128
2017-04-26T07:37:30.096Z,10152
2017-04-26T07:38:31.121Z,10136
2017-04-26T07:39:31.896Z,10320
2017-04-26T07:40:32.671Z,10412
2017-04-26T07:41:33.449Z,10956
2017-04-26T07:42:34.222Z,11712
2017-04-26T07:43:35.249Z,12396
2017-04-26T07:44:36.024Z,14252
2017-04-26T07:45:36.803Z,14100
2017-04-26T07:46:37.578Z,13908
2017-04-26T07:47:38.357Z,13820
2017-04-26T07:48:39.387Z,14680
2017-04-26T07:49:40.160Z,17408
2017-04-26T07:50:40.938Z,25216
2017-04-26T07:51:41.901Z,14972
2017-04-26T07:52:42.681Z,16928
2017-04-26T07:53:43.709Z,21408
2017-04-26T07:54:44.487Z,17856
2017-04-26T07:55:45.264Z,15048
2017-04-26T07:56:46.043Z,14252
2017-04-26T07:57:46.821Z,14696
2017-04-26T07:58:47.849Z,14592
2017-04-26T07:59:48.626Z,15348
2017-04-26T08:00:49.402Z,14424
2017-04-26T08:01:50.180Z,14952
2017-04-26T08:02:50.958Z,16576
2017-04-26T08:03:51.986Z,20704
2017-04-26T08:04:52.761Z,17952
2017-04-26T08:05:53.538Z,22464
2017-04-26T08:06:54.312Z,21824
2017-04-26T08:07:55.095Z,19488
2017-04-26T08:08:56.126Z,18656
2017-04-26T08:09:56.907Z,45440
2017-04-26T08:10:57.687Z,25120
2017-04-26T08:11:58.467Z,17760
2017-04-26T08:12:59.246Z,17312
2017-04-26T08:14:00.278Z,19808
2017-04-26T08:15:01.058Z,20448
2017-04-26T08:16:01.838Z,20704
2017-04-26T08:17:02.620Z,22272
2017-04-26T08:18:03.405Z,46048
2017-04-26T08:19:04.431Z,27936
2017-04-26T08:20:05.211Z,20608
2017-04-26T08:21:05.999Z,24224
2017-04-26T08:22:06.770Z,36448
2017-04-26T08:23:07.548Z,22848
2017-04-26T08:24:08.580Z,25120
2017-04-26T08:25:09.362Z,57888
2017-04-26T08:26:10.146Z,44416
2017-04-26T08:27:10.928Z,34432
2017-04-26T08:28:11.708Z,36256
2017-04-26T08:29:12.743Z,27040
2017-04-26T08:30:13.525Z,23584
2017-04-26T08:31:14.308Z,42368
2017-04-26T08:32:15.094Z,58048
2017-04-26T08:33:15.879Z,26400
2017-04-26T08:34:16.913Z,30720
2017-04-26T08:35:17.699Z,26208
2017-04-26T08:36:18.484Z,79616
2017-04-26T08:37:19.270Z,75200
2017-04-26T08:38:20.057Z,72192
2017-04-26T08:39:21.094Z,70784
2017-04-26T08:40:21.881Z,46080
2017-04-26T08:41:22.669Z,77280
2017-04-26T08:42:23.649Z,76960
2017-04-26T08:43:24.437Z,69024
2017-04-26T08:44:25.478Z,73664
2017-04-26T08:45:26.269Z,37216
2017-04-26T08:46:27.063Z,49760
2017-04-26T08:47:27.855Z,61344
2017-04-26T08:48:28.650Z,40992
2017-04-26T08:49:29.692Z,32480
2017-04-26T08:50:30.507Z,78400
2017-04-26T08:51:31.273Z,78880
2017-04-26T08:52:32.057Z,25472
2017-04-26T08:53:32.845Z,19712
2017-04-26T08:54:33.887Z,35296
2017-04-26T08:55:34.866Z,40448
2017-04-26T08:56:35.654Z,61536
2017-04-26T08:57:36.444Z,63584
2017-04-26T08:58:37.239Z,74080
2017-04-26T08:59:38.275Z,75520
2017-04-26T09:00:39.070Z,76288
2017-04-26T09:01:39.860Z,80608
2017-04-26T09:02:40.650Z,28992
2017-04-26T09:03:41.434Z,16068
2017-04-26T09:04:42.473Z,13348
2017-04-26T09:05:43.261Z,82912
2017-04-26T09:06:44.047Z,20832
2017-04-26T09:07:44.835Z,17504
2017-04-26T09:08:45.623Z,14988
2017-04-26T09:09:46.664Z,13188
2017-04-26T09:10:47.452Z,13136
2017-04-26T09:11:48.242Z,14064
2017-04-26T09:12:49.032Z,11004
2017-04-26T09:13:49.816Z,9788
2017-04-26T09:14:50.853Z,9380
2017-04-26T09:15:51.634Z,9336
2017-04-26T09:16:52.421Z,10140
2017-04-26T09:17:53.213Z,7996
2017-04-26T09:18:53.983Z,7124
2017-04-26T09:19:55.012Z,6488
2017-04-26T09:20:55.792Z,6144
2017-04-26T09:21:56.569Z,6084
2017-04-26T09:22:57.350Z,6012
2017-04-26T09:23:58.131Z,6068
2017-04-26T09:24:59.163Z,6200
2017-04-26T09:25:59.940Z,6256
2017-04-26T09:27:00.719Z,6220
2017-04-26T09:28:01.497Z,6188
2017-04-26T09:29:02.273Z,6156
2017-04-26T09:30:03.304Z,6080
2017-04-26T09:31:04.080Z,5968
2017-04-26T09:32:04.861Z,5788
2017-04-26T09:33:05.636Z,5604
2017-04-26T09:34:06.411Z,5452
2017-04-26T09:35:07.487Z,5376
2017-04-26T09:36:08.262Z,5452
2017-04-26T09:37:09.037Z,5636
2017-04-26T09:38:09.811Z,5900
2017-04-26T09:39:10.589Z,6128
2017-04-26T09:40:11.617Z,6328
2017-04-26T09:41:12.392Z,6400
2017-04-26T09:42:13.167Z,6356
2017-04-26T09:43:13.941Z,6284
2017-04-26T09:44:14.720Z,6180
2017-04-26T09:45:15.799Z,6012
2017-04-26T09:46:16.574Z,5832
2017-04-26T09:47:17.349Z,5656
2017-04-26T09:48:18.123Z,5656
2017-04-26T09:49:18.901Z,5792
2017-04-26T09:50:19.928Z,6088
2017-04-26T09:51:20.703Z,6520
2017-04-26T09:52:21.480Z,7008
2017-04-26T09:53:22.253Z,7460
2017-04-26T09:54:23.030Z,7604
2017-04-26T09:55:24.054Z,7448
2017-04-26T09:56:24.828Z,7272
2017-04-26T09:57:25.600Z,7228
2017-04-26T09:58:26.374Z,7200
2017-04-26T09:59:27.148Z,7208
2017-04-26T10:00:28.174Z,7900
2017-04-26T10:01:28.948Z,7676
2017-04-26T10:02:29.723Z,7456
2017-04-26T10:03:30.497Z,7332
2017-04-26T10:04:31.270Z,7304
2017-04-26T10:05:32.297Z,7284
2017-04-26T10:06:33.070Z,7352
2017-04-26T10:07:33.843Z,7440
2017-04-26T10:08:34.616Z,7596
2017-04-26T10:09:35.391Z,7724
2017-04-26T10:10:36.414Z,7848
2017-04-26T10:11:37.187Z,7996
2017-04-26T10:12:37.961Z,8148
2017-04-26T10:13:38.734Z,8340
2017-04-26T10:14:40.320Z,8460
2017-04-26T10:15:41.258Z,8600
2017-04-26T10:16:42.029Z,8816
2017-04-26T10:17:42.801Z,9124
2017-04-26T10:18:43.577Z,9452
2017-04-26T10:19:44.353Z,9688
2017-04-26T10:20:45.379Z,9884
2017-04-26T10:21:46.154Z,10116
2017-04-26T10:22:46.930Z,10504
2017-04-26T10:23:47.705Z,11188
2017-04-26T10:24:48.480Z,12216
2017-04-26T10:25:49.507Z,15344
2017-04-26T10:26:50.287Z,87200
2017-04-26T10:27:54.135Z,95040
2017-04-26T10:28:52.808Z,97088
2017-04-26T10:29:53.590Z,47776
2017-04-26T10:30:54.621Z,42688
2017-04-26T10:31:55.406Z,96480
2017-04-26T10:32:56.188Z,91712
2017-04-26T10:33:56.975Z,91488
2017-04-26T10:34:57.761Z,92480
2017-04-26T10:35:58.798Z,89600
2017-04-26T10:36:59.591Z,93632
2017-04-26T10:38:00.389Z,90656
2017-04-26T10:39:01.181Z,89696
2017-04-26T10:40:01.975Z,90976
2017-04-26T10:41:03.065Z,89696
2017-04-26T10:42:03.855Z,91328
2017-04-26T10:43:04.648Z,39424
2017-04-26T10:44:05.436Z,61536
2017-04-26T10:45:06.222Z,71296
2017-04-26T10:46:07.444Z,95520
2017-04-26T10:47:08.232Z,56480
2017-04-26T10:48:09.023Z,74016
2017-04-26T10:49:11.891Z,34976
2017-04-26T10:50:11.559Z,79264
2017-04-26T10:51:12.602Z,95808
2017-04-26T10:52:13.392Z,98528
2017-04-26T10:53:14.182Z,74784
2017-04-26T10:54:14.974Z,59904
2017-04-26T10:55:15.760Z,58336
2017-04-26T10:56:16.803Z,87328
2017-04-26T10:57:17.595Z,35008
2017-04-26T10:58:18.386Z,90624
2017-04-26T10:59:19.179Z,97472
2017-04-26T11:00:19.970Z,91296
2017-04-26T11:01:21.063Z,93280
2017-04-26T11:02:21.851Z,96032
2017-04-26T11:03:22.640Z,98272
2017-04-26T11:04:23.623Z,96704
2017-04-26T11:05:24.414Z,98880
2017-04-26T11:06:25.459Z,91552
2017-04-26T11:07:26.253Z,42720
2017-04-26T11:08:27.043Z,88512
2017-04-26T11:09:27.834Z,98656
2017-04-26T11:10:28.627Z,75456
2017-04-26T11:11:29.670Z,37088
2017-04-26T11:12:30.459Z,57504
2017-04-26T11:13:31.246Z,33600
2017-04-26T11:14:32.034Z,27264
2017-04-26T11:15:32.823Z,30528
2017-04-26T11:16:33.889Z,43040
2017-04-26T11:17:34.653Z,38048
2017-04-26T11:18:35.442Z,50592
2017-04-26T11:19:36.232Z,52064
2017-04-26T11:20:37.021Z,71808
2017-04-26T11:21:38.061Z,94944
2017-04-26T11:22:38.851Z,47488
2017-04-26T11:23:39.641Z,59296
2017-04-26T11:24:40.432Z,88096
2017-04-26T11:25:41.222Z,91264
2017-04-26T11:26:42.263Z,44544
2017-04-26T11:27:43.050Z,33344
2017-04-26T11:28:44.021Z,96448
2017-04-26T11:29:44.815Z,98976
2017-04-26T11:30:45.601Z,89184
2017-04-26T11:31:46.641Z,86624
2017-04-26T11:32:47.433Z,25248
2017-04-26T11:33:48.224Z,21664
2017-04-26T11:34:49.014Z,19904
2017-04-26T11:35:49.800Z,19424
2017-04-26T11:36:50.843Z,19872
2017-04-26T11:37:51.627Z,21056
2017-04-26T11:38:52.419Z,23328
2017-04-26T11:39:53.203Z,93952
2017-04-26T11:40:53.993Z,36320
2017-04-26T11:41:55.032Z,20448
2017-04-26T11:42:55.821Z,19296
2017-04-26T11:43:56.604Z,17600
2017-04-26T11:44:57.393Z,15440
2017-04-26T11:45:58.174Z,14268
2017-04-26T11:46:59.260Z,12316
2017-04-26T11:48:00.043Z,11388
2017-04-26T11:49:00.830Z,10596
2017-04-26T11:50:01.614Z,9580
2017-04-26T11:51:02.398Z,8196
2017-04-26T11:52:03.488Z,7808
2017-04-26T11:53:04.277Z,7052
2017-04-26T11:54:05.065Z,6412
2017-04-26T11:55:05.850Z,6224
2017-04-26T11:56:06.634Z,6384
2017-04-26T11:57:07.667Z,6992
2017-04-26T11:58:08.452Z,7708
2017-04-26T11:59:09.231Z,8824
2017-04-26T12:00:10.012Z,9824
2017-04-26T12:01:10.794Z,10368
2017-04-26T12:02:11.825Z,11036
2017-04-26T12:03:12.605Z,11620
2017-04-26T12:04:13.386Z,12788
2017-04-26T12:05:14.165Z,13404
2017-04-26T12:06:14.945Z,13124
2017-04-26T12:07:15.979Z,13104
2017-04-26T12:08:16.761Z,13436
2017-04-26T12:09:17.539Z,13108
2017-04-26T12:10:18.320Z,13260
2017-04-26T12:11:19.100Z,13504
2017-04-26T12:12:20.131Z,13560
2017-04-26T12:13:20.912Z,13644
2017-04-26T12:14:21.694Z,13880
2017-04-26T12:15:22.474Z,14240
2017-04-26T12:16:23.252Z,14596
2017-04-26T12:17:24.287Z,14872
2017-04-26T12:18:25.065Z,15120
2017-04-26T12:19:25.845Z,15472
2017-04-26T12:20:26.626Z,16192
2017-04-26T12:21:27.408Z,17856
2017-04-26T12:22:28.439Z,19744
2017-04-26T12:23:29.220Z,29632
2017-04-26T12:24:30.000Z,33376
2017-04-26T12:25:30.784Z,30432
2017-04-26T12:26:31.564Z,36416
2017-04-26T12:27:32.597Z,31360
2017-04-26T12:28:33.377Z,45344
2017-04-26T12:29:34.162Z,55712
2017-04-26T12:30:34.945Z,57248
2017-04-26T12:31:35.728Z,57344
2017-04-26T12:32:36.763Z,64160
2017-04-26T12:33:37.550Z,69536
2017-04-26T12:34:38.524Z,63840
2017-04-26T12:35:39.308Z,54528
2017-04-26T12:36:40.100Z,72864
2017-04-26T12:37:41.135Z,24864
2017-04-26T12:38:42.111Z,24928
2017-04-26T12:39:42.902Z,25536
2017-04-26T12:40:43.693Z,25088
2017-04-26T12:41:44.479Z,25888
2017-04-26T12:42:45.518Z,41056
2017-04-26T12:43:46.306Z,71520
2017-04-26T12:44:47.095Z,41824
2017-04-26T12:45:47.882Z,61408
2017-04-26T12:46:48.675Z,50848
2017-04-26T12:47:49.714Z,49760
2017-04-26T12:48:50.505Z,38944
2017-04-26T12:49:51.294Z,29344
2017-04-26T12:50:52.084Z,44960
2017-04-26T12:51:52.873Z,58560
2017-04-26T12:52:53.912Z,86400
2017-04-26T12:53:54.698Z,82720
2017-04-26T12:54:55.488Z,82368
2017-04-26T12:55:56.276Z,83328
2017-04-26T12:56:57.067Z,80832
2017-04-26T12:57:58.104Z,79648
2017-04-26T12:58:58.892Z,80832
2017-04-26T12:59:59.682Z,83520
2017-04-26T13:01:00.473Z,83584
2017-04-26T13:02:01.265Z,86656
2017-04-26T13:03:02.308Z,83584
2017-04-26T13:04:03.093Z,82272
2017-04-26T13:05:03.884Z,84704
2017-04-26T13:06:04.675Z,80640
2017-04-26T13:07:05.469Z,82592
2017-04-26T13:08:06.556Z,85632
2017-04-26T13:09:07.344Z,86816
2017-04-26T13:10:08.135Z,80800
2017-04-26T13:11:08.926Z,82784
2017-04-26T13:12:09.715Z,83744
2017-04-26T13:13:10.758Z,77664
2017-04-26T13:14:11.552Z,77312
2017-04-26T13:15:12.340Z,74464
2017-04-26T13:16:13.130Z,75424
2017-04-26T13:17:13.922Z,76192
2017-04-26T13:18:14.964Z,77408
2017-04-26T13:19:15.755Z,76480
2017-04-26T13:20:16.547Z,72512
2017-04-26T13:21:17.337Z,76032
2017-04-26T13:22:18.129Z,75584
2017-04-26T13:23:19.171Z,68832
2017-04-26T13:24:19.962Z,78272
2017-04-26T13:25:20.754Z,75968
2017-04-26T13:26:21.545Z,72320
2017-04-26T13:27:22.334Z,74016
2017-04-26T13:28:23.382Z,71456
2017-04-26T13:29:24.169Z,72096
2017-04-26T13:30:24.962Z,75712
2017-04-26T13:31:25.755Z,72256
2017-04-26T13:32:26.548Z,24096
2017-04-26T13:33:27.644Z,67008
2017-04-26T13:34:28.434Z,21056
2017-04-26T13:35:29.223Z,9488
2017-04-26T13:36:30.010Z,12072
2017-04-26T13:37:30.796Z,15120
2017-04-26T13:38:31.834Z,22976
2017-04-26T13:39:32.624Z,67040
2017-04-26T13:40:33.408Z,57120
2017-04-26T13:41:34.198Z,76096
2017-04-26T13:42:34.988Z,73376
2017-04-26T13:43:36.029Z,72640
2017-04-26T13:44:36.820Z,71392